Portada
METAR-TAF:

METAR-TAF

Aeroports :

Moree, Austràlia

latitud: 29-29-56S, longitud: 149-50-41E, altitud: 214 m

Observació

L'informe es va fer fa 14 minuts, a les 19:00 UTC
Vent 6 kt del Est/Nord-Est
Temperatura 1°C
Humitat 69%
Pressió 1021 hPa
Visibilitat 10 km o més

METAR: YMOR 141900Z AUTO 07006KT 9999 // NCD 01/M04 Q1021

Hora: 05:14 (19:14 UTC)


TAF: manca

Observacions i pronòstics meteorològics de més de 4000 aeroports (METAR i TAF).

Les estacions disponibles són els punts grocs i vermells al mapa.

Posi el ratolí al punt desitjat per veure el nom de l'estació.

Feu clic per veure les observacions i els pronòstics meteorològics.

Per canviar el mapa: feu clic els botons verds amb una creu de color negre per apropar; al botó verd amb un guió per allunyar la imatge; o en les fletxes verdes per a mapes adjacents.


METAR-TAF: